< < Back
Terminal Aerodrome Forecast


Current Version              Previous Versions:   1  2  3  4  5  6  7  8  9  

Terminal Aerodrome Forecast

413
FTUS44 KMOB 200500
TAFPNS
TAF
KPNS 200526Z 2006/2106 VRB03KT P6SM SKC
     FM201900 15006KT P6SM SKC
     FM210200 VRB03KT P6SM SKC=



Latest METAR

036
SAUS70 KWBC 202100 RRI
MTRPNS
METAR KPNS 202053Z VRB06KT 10SM CLR 25/14 A2998 RMK AO2 SLP152 T02500139
56018


USA.gov is the U.S. government's official web portal to all federal, state and local government web resources and services.